Time;durP1;ratioP1;P1;durP2;ratioP2;P2;SDS_P1;SDS_P2;PMS_P1;PMS_P2;Temp;Humidity;BMP_temperature;BMP_pressure;BME280_temperature;BME280_humidity;BME280_pressure;Samples;Min_cycle;Max_cycle;Signal;HPM_P1;HPM_P2
2022/04/26 03:37:52;;;;;;;40.50;28.85;;;10.80;99.90;;;;;;5133029;27;20257;-66
2022/04/26 03:40:19;;;;;;;38.63;27.30;;;10.90;99.90;;;;;;5137323;27;20311;-66
2022/04/26 03:42:46;;;;;;;39.45;28.45;;;10.90;99.90;;;;;;5137587;27;20240;-66
2022/04/26 03:45:12;;;;;;;42.33;29.02;;;10.80;99.90;;;;;;5137373;27;20207;-67
2022/04/26 03:47:39;;;;;;;44.08;29.60;;;10.80;99.90;;;;;;5137676;27;20213;-66
2022/04/26 03:50:08;;;;;;;38.75;26.83;;;10.80;99.90;;;;;;5137654;27;20269;-66
2022/04/26 03:52:35;;;;;;;39.55;27.27;;;10.80;99.90;;;;;;5136721;27;20207;-66
2022/04/26 03:55:03;;;;;;;41.70;28.00;;;10.80;99.90;;;;;;5137128;27;20201;-66
2022/04/26 03:57:30;;;;;;;39.30;26.90;;;10.90;99.90;;;;;;5137184;27;20250;-66
2022/04/26 03:59:56;;;;;;;40.70;29.08;;;10.90;99.90;;;;;;5136977;27;20226;-66
2022/04/26 04:02:23;;;;;;;36.13;26.67;;;11.00;99.90;;;;;;5136747;27;20671;-66
2022/04/26 04:04:50;;;;;;;36.05;26.98;;;11.10;99.90;;;;;;5137094;27;20308;-66
2022/04/26 04:07:18;;;;;;;39.50;26.75;;;11.10;99.90;;;;;;5136997;27;20226;-66
2022/04/26 04:09:45;;;;;;;34.15;25.75;;;11.10;99.90;;;;;;5137293;27;20291;-66
2022/04/26 04:12:12;;;;;;;37.78;25.98;;;11.20;99.90;;;;;;5136761;27;20197;-66
2022/04/26 04:14:39;;;;;;;33.67;26.75;;;11.20;99.90;;;;;;5136363;27;20391;-66
2022/04/26 04:17:06;;;;;;;34.58;26.52;;;11.10;99.90;;;;;;5137365;27;20201;-66
2022/04/26 04:19:33;;;;;;;46.25;30.17;;;11.00;99.90;;;;;;5137115;27;20638;-66
2022/04/26 04:21:59;;;;;;;42.95;29.17;;;10.90;99.90;;;;;;5137017;27;20260;-66
2022/04/26 04:24:28;;;;;;;41.00;27.63;;;10.80;99.90;;;;;;5136803;27;20227;-66
2022/04/26 04:26:55;;;;;;;42.60;27.80;;;10.80;99.90;;;;;;5136504;27;20292;-67
2022/04/26 04:29:21;;;;;;;36.20;26.63;;;10.80;99.90;;;;;;5136155;27;20560;-66
2022/04/26 04:31:49;;;;;;;36.95;26.42;;;10.70;99.90;;;;;;5136203;27;20207;-66
2022/04/26 04:34:16;;;;;;;37.83;25.27;;;10.80;99.90;;;;;;5135950;27;20255;-66
2022/04/26 04:36:43;;;;;;;34.33;24.92;;;10.90;99.90;;;;;;5136518;27;20284;-66
2022/04/26 04:39:10;;;;;;;34.20;23.77;;;10.80;99.90;;;;;;5135984;27;20247;-66
2022/04/26 04:41:38;;;;;;;31.40;22.27;;;10.80;99.90;;;;;;5136538;27;20303;-66
2022/04/26 04:44:07;;;;;;;28.45;20.75;;;10.90;99.90;;;;;;5136047;27;20660;-66
2022/04/26 04:46:34;;;;;;;29.77;21.17;;;10.90;99.90;;;;;;5136252;27;20201;-66
2022/04/26 04:49:01;;;;;;;28.10;19.85;;;11.00;99.90;;;;;;5136245;27;20207;-66
2022/04/26 04:51:28;;;;;;;27.65;20.83;;;11.10;99.90;;;;;;5136232;27;20201;-66
2022/04/26 04:53:54;;;;;;;25.30;18.50;;;11.10;99.90;;;;;;5135882;27;20227;-66
2022/04/26 04:56:23;;;;;;;26.55;19.50;;;11.20;99.90;;;;;;5136022;27;20287;-66
2022/04/26 04:58:51;;;;;;;26.83;20.40;;;11.20;99.90;;;;;;5136578;27;20205;-66
2022/04/26 05:01:18;;;;;;;29.33;20.35;;;11.20;99.90;;;;;;5135976;27;20216;-66
2022/04/26 05:03:45;;;;;;;25.98;19.23;;;11.20;99.90;;;;;;5135225;27;20216;-66
2022/04/26 05:06:14;;;;;;;30.98;20.73;;;11.20;99.90;;;;;;5135988;27;20569;-66
2022/04/26 05:08:40;;;;;;;27.42;20.65;;;11.30;99.90;;;;;;5135918;27;20196;-66
2022/04/26 05:11:07;;;;;;;25.75;18.95;;;11.40;99.90;;;;;;5136164;27;20550;-66
2022/04/26 05:13:34;;;;;;;25.08;18.63;;;11.40;99.90;;;;;;5135782;27;20227;-66
2022/04/26 05:16:03;;;;;;;28.50;20.75;;;11.40;99.90;;;;;;5135901;27;20283;-66
2022/04/26 05:18:30;;;;;;;27.73;20.20;;;11.30;99.90;;;;;;5135889;27;20196;-66
2022/04/26 05:20:57;;;;;;;29.65;20.35;;;11.30;99.90;;;;;;5135781;27;20307;-66
2022/04/26 05:26:14;;;;;;;26.40;19.35;;;11.60;99.90;;;;;;5095393;27;20277;-66
2022/04/26 05:28:40;;;;;;;25.13;19.45;;;11.50;99.90;;;;;;5134808;27;20219;-66
2022/04/26 05:31:09;;;;;;;29.15;20.88;;;11.40;99.90;;;;;;5134963;27;20207;-66
2022/04/26 05:33:35;;;;;;;30.33;21.15;;;11.30;99.90;;;;;;5134428;27;20221;-66
2022/04/26 05:36:03;;;;;;;27.50;20.27;;;11.20;99.90;;;;;;5134744;27;20536;-66
2022/04/26 05:38:29;;;;;;;27.63;20.65;;;11.30;99.90;;;;;;5134703;27;20681;-66
2022/04/26 05:40:56;;;;;;;29.30;21.23;;;11.50;99.90;;;;;;5135041;27;20217;-66
2022/04/26 05:43:23;;;;;;;25.48;19.13;;;11.50;99.90;;;;;;5135362;27;20222;-66
2022/04/26 05:45:50;;;;;;;26.77;20.70;;;11.70;99.90;;;;;;5135376;28;20264;-66
2022/04/26 05:48:18;;;;;;;23.80;18.35;;;11.80;99.90;;;;;;5135211;28;20201;-67
2022/04/26 05:50:45;;;;;;;27.15;18.95;;;11.80;99.90;;;;;;5135077;28;20197;-66
2022/04/26 05:53:12;;;;;;;24.88;18.83;;;11.80;99.90;;;;;;5135064;28;20227;-66
2022/04/26 05:55:39;;;;;;;23.15;18.40;;;11.90;99.90;;;;;;5135403;28;20232;-66
2022/04/26 05:58:06;;;;;;;22.00;17.42;;;12.00;99.90;;;;;;5135186;27;20197;-66
2022/04/26 06:00:33;;;;;;;23.10;17.85;;;12.10;99.90;;;;;;5135007;28;20212;-66
2022/04/26 06:03:00;;;;;;;22.70;17.83;;;12.00;99.90;;;;;;5134526;28;20220;-66
2022/04/26 06:05:29;;;;;;;22.80;18.30;;;12.00;99.90;;;;;;5135458;28;20558;-66
2022/04/26 06:07:56;;;;;;;23.13;17.60;;;11.80;99.90;;;;;;5135113;28;20662;-66
2022/04/26 06:10:23;;;;;;;26.70;20.23;;;11.80;99.90;;;;;;5134845;28;20662;-66
2022/04/26 06:12:50;;;;;;;23.90;18.58;;;11.80;99.90;;;;;;5135023;28;20201;-66
2022/04/26 06:15:17;;;;;;;25.77;19.13;;;11.90;99.90;;;;;;5137107;27;20291;-66
2022/04/26 06:17:45;;;;;;;23.25;18.42;;;11.80;99.90;;;;;;5139153;27;20230;-66
2022/04/26 06:20:12;;;;;;;27.85;19.10;;;11.70;99.90;;;;;;5139338;27;20632;-66
2022/04/26 06:22:40;;;;;;;25.02;19.60;;;11.60;99.90;;;;;;5138912;27;20234;-67
2022/04/26 06:25:08;;;;;;;26.08;19.95;;;11.50;99.90;;;;;;5139273;27;20241;-66
2022/04/26 06:27:35;;;;;;;23.60;18.63;;;11.60;99.90;;;;;;5139069;27;20287;-66
2022/04/26 06:30:02;;;;;;;22.25;18.42;;;11.60;99.90;;;;;;5138702;27;20299;-66
2022/04/26 06:32:28;;;;;;;26.88;20.20;;;11.70;99.90;;;;;;5138921;27;20617;-66
2022/04/26 06:34:55;;;;;;;26.20;19.80;;;11.60;99.90;;;;;;5138597;27;20247;-66
2022/04/26 06:37:23;;;;;;;24.90;19.08;;;11.60;99.90;;;;;;5138915;27;20296;-66
2022/04/26 06:39:53;;;;;;;22.80;18.23;;;11.70;99.90;;;;;;5138744;27;20200;-66
2022/04/26 06:42:20;;;;;;;26.40;20.23;;;11.70;99.90;;;;;;5138714;27;20224;-66
2022/04/26 06:44:47;;;;;;;25.13;19.70;;;11.60;99.90;;;;;;5138414;27;20225;-66
2022/04/26 06:47:13;;;;;;;27.15;20.63;;;11.60;99.90;;;;;;5138417;27;20201;-66
2022/04/26 06:49:40;;;;;;;24.98;19.33;;;11.60;99.90;;;;;;5138453;27;20211;-66
2022/04/26 06:52:07;;;;;;;26.73;20.92;;;11.70;99.90;;;;;;5138335;27;20562;-66
2022/04/26 06:54:34;;;;;;;26.23;20.45;;;11.90;99.90;;;;;;5138356;27;20256;-66
2022/04/26 06:57:02;;;;;;;25.40;19.75;;;11.90;99.90;;;;;;5138347;27;20201;-66
2022/04/26 06:59:29;;;;;;;26.20;20.65;;;12.00;99.90;;;;;;5138333;27;20788;-66
2022/04/26 07:01:56;;;;;;;24.95;20.77;;;12.00;99.90;;;;;;5138200;27;20227;-66
2022/04/26 07:04:23;;;;;;;25.35;19.67;;;12.10;99.90;;;;;;5138084;27;20225;-66
2022/04/26 07:06:50;;;;;;;25.80;20.63;;;12.20;99.90;;;;;;5138076;27;20196;-66
2022/04/26 07:09:18;;;;;;;24.50;20.60;;;12.10;99.90;;;;;;5138115;27;20296;-66
2022/04/26 07:11:46;;;;;;;22.42;20.02;;;12.10;99.90;;;;;;5137664;27;20201;-66
2022/04/26 07:14:14;;;;;;;21.23;18.92;;;12.10;99.90;;;;;;5137723;27;20583;-66
2022/04/26 07:16:41;;;;;;;42.22;33.35;;;12.10;99.90;;;;;;5138168;27;20292;-66
2022/04/26 07:19:08;;;;;;;25.60;21.38;;;12.00;99.90;;;;;;5137782;27;20662;-66
2022/04/26 07:21:36;;;;;;;22.98;20.15;;;12.00;99.90;;;;;;5137447;27;20307;-66
2022/04/26 07:24:03;;;;;;;22.13;19.52;;;12.10;99.90;;;;;;5137386;27;20220;-66
2022/04/26 07:26:30;;;;;;;25.33;20.58;;;12.20;99.90;;;;;;5137007;27;20217;-66
2022/04/26 07:28:57;;;;;;;21.40;17.40;;;12.30;99.90;;;;;;5137667;27;20213;-66
2022/04/26 07:31:25;;;;;;;17.40;15.15;;;12.40;99.90;;;;;;5137535;27;20203;-66
2022/04/26 07:36:37;;;;;;;17.00;15.20;;;12.70;99.90;;;;;;5137500;27;20192;-66
2022/04/26 07:39:06;;;;;;;16.98;15.27;;;12.70;99.90;;;;;;5137240;27;20291;-66
2022/04/26 07:41:33;;;;;;;16.45;14.77;;;12.90;99.90;;;;;;5137333;27;20278;-66
2022/04/26 07:43:59;;;;;;;14.00;12.60;;;12.50;99.90;;;;;;5137214;27;20717;-66
2022/04/26 07:46:28;;;;;;;15.00;13.50;;;12.50;99.90;;;;;;5137292;27;20201;-66
2022/04/26 07:48:55;;;;;;;13.15;11.93;;;12.50;99.90;;;;;;5137558;27;20207;-67
2022/04/26 07:51:22;;;;;;;16.05;14.35;;;12.50;99.90;;;;;;5136895;27;20200;-66
2022/04/26 07:53:49;;;;;;;17.33;15.43;;;12.40;99.90;;;;;;5136968;27;20225;-66
2022/04/26 07:56:16;;;;;;;18.25;15.20;;;12.40;99.90;;;;;;5137175;27;20566;-66
2022/04/26 07:58:43;;;;;;;18.13;16.10;;;12.40;99.90;;;;;;5137134;27;20291;-66
2022/04/26 08:01:09;;;;;;;18.17;15.77;;;12.20;99.90;;;;;;5137107;27;20200;-66
2022/04/26 08:03:37;;;;;;;19.05;17.05;;;12.00;99.90;;;;;;5136874;27;20311;-67
2022/04/26 08:06:04;;;;;;;17.73;15.93;;;11.90;99.90;;;;;;5136873;27;20291;-66
2022/04/26 08:08:31;;;;;;;18.05;16.13;;;12.10;99.90;;;;;;5137085;27;20610;-66
2022/04/26 08:11:00;;;;;;;18.50;16.58;;;12.20;99.90;;;;;;5136956;27;20200;-66
2022/04/26 08:13:27;;;;;;;17.60;14.82;;;12.20;99.90;;;;;;5136569;27;20227;-67
2022/04/26 08:15:53;;;;;;;14.85;13.25;;;12.20;99.90;;;;;;5136930;27;20203;-66
2022/04/26 08:18:20;;;;;;;15.05;13.40;;;12.10;99.90;;;;;;5136916;27;20207;-66
2022/04/26 08:20:48;;;;;;;15.25;13.05;;;12.10;99.90;;;;;;5136721;27;20295;-66
2022/04/26 08:23:15;;;;;;;13.70;12.30;;;12.00;99.90;;;;;;5136414;27;20705;-66
2022/04/26 08:28:28;;;;;;;14.98;13.43;;;11.90;99.90;;;;;;5136661;27;20631;-66
2022/04/26 08:30:56;;;;;;;17.65;14.05;;;12.00;99.90;;;;;;5136592;27;20240;-66
2022/04/26 08:33:23;;;;;;;15.52;13.65;;;12.10;99.90;;;;;;5135856;27;20702;-66
2022/04/26 08:35:51;;;;;;;14.05;12.48;;;12.20;99.90;;;;;;5136622;27;20254;-66
2022/04/26 08:38:18;;;;;;;14.98;13.38;;;12.20;99.90;;;;;;5136668;27;20201;-66
2022/04/26 08:40:46;;;;;;;14.25;12.73;;;12.30;99.90;;;;;;5136519;27;20558;-66
2022/04/26 08:43:13;;;;;;;12.95;11.65;;;12.40;99.90;;;;;;5136053;27;20585;-66
2022/04/26 08:45:41;;;;;;;18.27;13.23;;;12.50;99.90;;;;;;5136442;27;20207;-66
2022/04/26 08:51:03;;;;;;;16.90;14.55;;;12.90;99.90;;;;;;5136590;27;20699;-66
2022/04/26 08:53:33;;;;;;;22.52;18.77;;;13.10;99.90;;;;;;5136101;27;20220;-66
2022/04/26 08:56:01;;;;;;;15.70;14.13;;;13.20;99.90;;;;;;5136347;27;20257;-66
2022/04/26 08:58:31;;;;;;;16.33;14.57;;;13.20;99.90;;;;;;5136335;27;20212;-66
2022/04/26 09:01:05;;;;;;;15.95;11.40;;;13.10;99.90;;;;;;5136308;27;20201;-66
2022/04/26 09:03:34;;;;;;;14.93;13.32;;;13.10;99.90;;;;;;5135996;27;20235;-66
2022/04/26 09:06:07;;;;;;;14.60;13.10;;;13.00;99.90;;;;;;5136253;27;20205;-66
2022/04/26 09:08:35;;;;;;;14.75;13.05;;;13.00;99.90;;;;;;5136321;27;20200;-66
2022/04/26 09:11:02;;;;;;;14.60;13.00;;;12.90;99.90;;;;;;5136111;27;20569;-66
2022/04/26 09:13:38;;;;;;;15.05;12.63;;;13.00;99.90;;;;;;5135906;27;20311;-66
2022/04/26 09:16:07;;;;;;;14.13;12.73;;;13.10;99.90;;;;;;5136476;27;20256;-66
2022/04/26 09:18:33;;;;;;;14.25;12.75;;;13.10;99.90;;;;;;5136046;27;20208;-67
2022/04/26 09:21:11;;;;;;;15.52;11.98;;;13.20;99.90;;;;;;5136026;27;20246;-66
2022/04/26 09:23:40;;;;;;;13.98;12.55;;;13.20;99.90;;;;;;5135648;27;20266;-66
2022/04/26 09:26:08;;;;;;;13.00;11.50;;;13.20;99.90;;;;;;5135709;27;20663;-66
2022/04/26 09:28:36;;;;;;;13.48;12.07;;;13.00;99.90;;;;;;5135741;27;20212;-66
2022/04/26 09:31:17;;;;;;;12.20;10.80;;;12.90;99.90;;;;;;5135949;27;20543;-66
2022/04/26 09:33:47;;;;;;;12.23;10.93;;;12.90;99.90;;;;;;5135811;27;20220;-66
2022/04/26 09:36:17;;;;;;;12.05;10.60;;;13.00;99.90;;;;;;5135770;27;20200;-66
2022/04/26 09:38:50;;;;;;;10.77;9.70;;;13.10;99.90;;;;;;5135983;27;20562;-66
2022/04/26 09:41:17;;;;;;;11.32;10.20;;;13.10;99.90;;;;;;5136122;27;20200;-66
2022/04/26 09:43:44;;;;;;;11.63;10.43;;;13.30;99.90;;;;;;5135201;27;20229;-66
2022/04/26 09:46:11;;;;;;;12.57;11.27;;;13.40;99.90;;;;;;5135816;27;20544;-66
2022/04/26 09:48:39;;;;;;;10.63;9.55;;;13.50;99.90;;;;;;5135605;27;20197;-66
2022/04/26 09:51:07;;;;;;;11.43;10.20;;;13.80;99.90;;;;;;5135605;28;20277;-66
2022/04/26 09:53:36;;;;;;;11.27;10.27;;;13.90;99.90;;;;;;5135367;28;20217;-66
2022/04/26 09:56:05;;;;;;;11.27;10.27;;;14.20;99.90;;;;;;5135758;28;20751;-66
2022/04/26 09:58:34;;;;;;;11.05;9.95;;;14.60;99.90;;;;;;5133573;28;20202;-67
2022/04/26 10:01:04;;;;;;;11.50;10.35;;;14.70;99.90;;;;;;5121215;28;20207;-67
2022/04/26 10:03:32;;;;;;;10.43;9.32;;;14.90;99.90;;;;;;5133828;28;20697;-66
2022/04/26 10:06:05;;;;;;;10.10;9.00;;;15.50;99.90;;;;;;5134022;28;20243;-66
2022/04/26 10:08:34;;;;;;;10.45;9.45;;;15.90;99.50;;;;;;5134138;28;20624;-66
2022/04/26 10:11:03;;;;;;;10.20;9.30;;;16.50;99.90;;;;;;5133406;27;20705;-67
2022/04/26 10:13:32;;;;;;;9.70;8.70;;;17.50;95.90;;;;;;5133158;28;20225;-66
2022/04/26 10:16:01;;;;;;;8.77;8.07;;;17.30;94.20;;;;;;5133417;28;20197;-66
2022/04/26 10:18:34;;;;;;;9.73;8.93;;;16.90;94.00;;;;;;5133213;28;20196;-67
2022/04/26 10:21:01;;;;;;;8.63;7.80;;;16.80;95.40;;;;;;5132849;28;20291;-67
2022/04/26 10:23:28;;;;;;;8.40;7.70;;;16.60;96.60;;;;;;5132743;28;20735;-69
2022/04/26 10:26:24;;;;;;;10.20;8.95;;;16.50;94.30;;;;;;5132922;28;20223;-68
2022/04/26 10:28:53;;;;;;;8.80;8.00;;;16.20;93.00;;;;;;5119273;27;20218;-69
2022/04/26 10:31:21;;;;;;;9.20;8.35;;;15.60;92.20;;;;;;5132827;28;20208;-69
2022/04/26 10:33:48;;;;;;;8.43;7.68;;;15.40;94.20;;;;;;5132329;27;20225;-69
2022/04/26 10:36:35;;;;;;;8.77;7.75;;;15.10;95.40;;;;;;5132741;28;20203;-70
2022/04/26 10:39:27;;;;;;;9.18;8.38;;;15.70;95.30;;;;;;5132950;28;20204;-69
2022/04/26 10:41:55;;;;;;;9.65;8.75;;;16.50;97.70;;;;;;5132500;28;20589;-69
2022/04/26 10:44:27;;;;;;;8.25;7.60;;;16.60;93.90;;;;;;5132363;28;20316;-70
2022/04/26 10:47:36;;;;;;;7.85;7.22;;;17.20;90.70;;;;;;5133044;28;20547;-70
2022/04/26 10:50:05;;;;;;;7.38;6.68;;;17.30;91.50;;;;;;5132812;27;20197;-70
2022/04/26 10:52:44;;;;;;;7.70;6.95;;;17.60;82.10;;;;;;5132889;27;20291;-69
2022/04/26 10:55:15;;;;;;;7.55;6.85;;;17.40;83.80;;;;;;5132777;28;20204;-69
2022/04/26 10:57:45;;;;;;;7.70;7.00;;;16.90;84.50;;;;;;5132832;28;20201;-70
2022/04/26 11:00:15;;;;;;;7.60;6.90;;;16.70;83.70;;;;;;5132796;27;20207;-69
2022/04/26 11:02:44;;;;;;;7.50;6.78;;;16.50;84.50;;;;;;5134788;27;20270;-70
2022/04/26 11:05:13;;;;;;;8.05;7.40;;;16.20;87.30;;;;;;5136238;27;20656;-68
2022/04/26 11:07:42;;;;;;;7.20;6.50;;;15.90;90.10;;;;;;5136464;27;20577;-69
2022/04/26 11:10:10;;;;;;;7.28;6.68;;;15.70;90.20;;;;;;5136315;27;20210;-68
2022/04/26 11:12:38;;;;;;;7.55;6.75;;;16.10;90.70;;;;;;5135927;27;20666;-68
2022/04/26 11:15:10;;;;;;;6.43;5.82;;;16.50;88.60;;;;;;5135900;27;20236;-68
2022/04/26 11:17:36;;;;;;;6.72;6.07;;;16.40;80.90;;;;;;5135960;27;20211;-68
2022/04/26 11:20:06;;;;;;;7.07;6.45;;;16.40;82.50;;;;;;5136309;27;20215;-69
2022/04/26 11:22:33;;;;;;;7.40;6.75;;;16.20;82.90;;;;;;5135667;27;20220;-68
2022/04/26 11:28:03;;;;;;;11.20;10.05;;;14.80;92.90;;;;;;5135943;27;20329;-68
2022/04/26 11:30:35;;;;;;;12.60;11.25;;;14.30;95.70;;;;;;5135941;27;20211;-69
2022/04/26 11:33:03;;;;;;;12.00;10.77;;;14.10;98.40;;;;;;5135397;27;20771;-69
2022/04/26 11:35:30;;;;;;;12.45;9.68;;;13.70;99.70;;;;;;5135436;27;20197;-68
2022/04/26 11:37:59;;;;;;;11.45;10.35;;;13.70;99.80;;;;;;5135891;27;20202;-69
2022/04/26 11:40:28;;;;;;;11.48;10.35;;;13.50;99.90;;;;;;5130238;27;20207;-69
2022/04/26 11:42:57;;;;;;;11.25;10.23;;;13.40;99.90;;;;;;5114856;28;20256;-68
2022/04/26 11:45:28;;;;;;;9.52;8.60;;;13.70;99.90;;;;;;5114821;28;20204;-70
2022/04/26 11:47:57;;;;;;;11.63;9.10;;;13.90;99.90;;;;;;5114922;28;20246;-69
2022/04/26 11:50:25;;;;;;;10.38;9.32;;;14.10;99.90;;;;;;5115150;28;20289;-69
2022/04/26 11:52:55;;;;;;;10.88;9.02;;;13.80;97.10;;;;;;5114514;28;20198;-70
2022/04/26 11:55:27;;;;;;;10.85;9.68;;;13.90;97.50;;;;;;5114886;28;20201;-68
2022/04/26 11:58:05;;;;;;;9.32;8.43;;;13.90;98.50;;;;;;5114752;28;20667;-69
2022/04/26 12:00:32;;;;;;;7.22;6.10;;;13.20;97.60;;;;;;5114836;28;20229;-68
2022/04/26 12:03:01;;;;;;;9.60;8.40;;;13.00;97.90;;;;;;5114328;28;20229;-69
2022/04/26 12:05:28;;;;;;;9.38;8.45;;;12.90;98.20;;;;;;5114647;28;20216;-68
2022/04/26 12:07:55;;;;;;;8.77;7.90;;;13.00;99.60;;;;;;5114678;28;20252;-68
2022/04/26 12:10:30;;;;;;;8.30;7.60;;;13.10;98.80;;;;;;5114824;28;20202;-69
2022/04/26 12:12:58;;;;;;;7.78;7.10;;;13.30;99.50;;;;;;5114109;28;20224;-69
2022/04/26 12:15:27;;;;;;;7.93;7.13;;;13.60;98.70;;;;;;5114495;28;20624;-69
2022/04/26 12:18:11;;;;;;;7.72;7.03;;;13.40;95.70;;;;;;5114198;28;20212;-68
2022/04/26 12:20:55;;;;;;;9.38;8.13;;;13.40;96.80;;;;;;5114712;28;20283;-68
2022/04/26 12:23:22;;;;;;;8.90;7.13;;;13.60;95.00;;;;;;5114257;28;20712;-67
2022/04/26 12:25:53;;;;;;;7.68;6.97;;;13.50;97.40;;;;;;5115315;28;20204;-67
2022/04/26 12:28:20;;;;;;;8.10;7.30;;;13.70;96.90;;;;;;5114387;28;20204;-67
2022/04/26 12:30:47;;;;;;;8.20;7.50;;;13.70;98.00;;;;;;5114994;28;20204;-67
2022/04/26 12:33:30;;;;;;;10.82;9.02;;;13.70;97.80;;;;;;5114288;28;20565;-68
2022/04/26 12:36:02;;;;;;;9.95;9.05;;;13.70;96.60;;;;;;5114296;28;20213;-68
2022/04/26 12:38:29;;;;;;;10.98;9.98;;;13.70;98.40;;;;;;5114002;28;20208;-68
2022/04/26 12:41:04;;;;;;;10.05;9.05;;;13.50;98.60;;;;;;5113831;28;20201;-68
2022/04/26 12:43:32;;;;;;;10.20;9.15;;;13.50;99.30;;;;;;5113440;28;20731;-67
2022/04/26 12:46:00;;;;;;;8.90;7.95;;;13.30;99.80;;;;;;5113964;28;20656;-68
2022/04/26 12:51:17;;;;;;;5.57;4.25;;;12.90;97.60;;;;;;5113580;28;20208;-68
2022/04/26 12:53:46;;;;;;;6.30;5.40;;;12.60;97.70;;;;;;5113735;28;20217;-68
2022/04/26 12:56:14;;;;;;;4.10;3.67;;;12.50;99.90;;;;;;5113725;28;20205;-67
2022/04/26 12:58:42;;;;;;;5.75;4.38;;;12.20;99.90;;;;;;5113808;28;20205;-66
2022/04/26 13:01:09;;;;;;;4.82;4.43;;;11.80;99.90;;;;;;5114006;28;20203;-67
2022/04/26 13:03:39;;;;;;;4.85;4.35;;;11.70;99.90;;;;;;5113275;28;20225;-67
2022/04/26 13:06:11;;;;;;;4.30;3.90;;;11.60;99.90;;;;;;5114242;28;20198;-68
2022/04/26 13:08:39;;;;;;;5.80;5.18;;;11.50;99.90;;;;;;5113703;28;20197;-68
2022/04/26 13:11:06;;;;;;;6.13;4.88;;;11.50;99.90;;;;;;5113094;28;20300;-72
2022/04/26 13:13:35;;;;;;;9.07;5.00;;;11.50;99.90;;;;;;5113307;28;20224;-69
2022/04/26 13:16:03;;;;;;;5.70;5.18;;;11.60;99.90;;;;;;5113394;28;20197;-68
2022/04/26 13:18:30;;;;;;;5.43;4.93;;;11.70;99.90;;;;;;5113348;28;20296;-68
2022/04/26 13:20:59;;;;;;;10.50;9.10;;;11.90;99.90;;;;;;5113373;28;20668;-68
2022/04/26 13:23:29;;;;;;;5.78;5.20;;;12.00;99.90;;;;;;5112809;28;20236;-68
2022/04/26 13:25:57;;;;;;;7.32;4.97;;;12.10;99.90;;;;;;5112967;28;20295;-69
2022/04/26 13:28:24;;;;;;;5.20;4.70;;;12.20;99.90;;;;;;5112993;28;20231;-68
2022/04/26 13:30:51;;;;;;;6.40;5.75;;;12.50;99.90;;;;;;5113178;28;20209;-68
2022/04/26 13:33:18;;;;;;;6.18;5.60;;;12.80;99.90;;;;;;5112824;28;20231;-67
2022/04/26 13:35:45;;;;;;;5.45;4.95;;;13.20;99.90;;;;;;5113107;28;20721;-68
2022/04/26 13:38:14;;;;;;;5.32;4.90;;;13.60;99.90;;;;;;5112751;28;20681;-68
2022/04/26 13:40:43;;;;;;;5.10;4.60;;;13.90;99.90;;;;;;5113136;28;20209;-68
2022/04/26 13:43:10;;;;;;;5.68;5.18;;;14.20;99.90;;;;;;5112448;28;20218;-68
2022/04/26 13:45:38;;;;;;;5.25;4.55;;;14.10;99.90;;;;;;5112838;28;20197;-68
2022/04/26 13:48:09;;;;;;;4.70;4.30;;;14.10;99.90;;;;;;5112939;28;20201;-68
2022/04/26 13:50:36;;;;;;;3.60;3.30;;;13.90;99.90;;;;;;5112530;28;20211;-68
2022/04/26 13:53:03;;;;;;;4.30;4.00;;;14.10;99.90;;;;;;5112451;28;20255;-68
2022/04/26 13:55:31;;;;;;;4.00;3.67;;;14.30;99.90;;;;;;5112724;28;20245;-68
2022/04/26 13:57:58;;;;;;;4.10;3.80;;;14.40;99.20;;;;;;5112789;28;20634;-68
2022/04/26 14:00:25;;;;;;;4.07;3.78;;;14.40;98.60;;;;;;5112380;28;20212;-68
2022/04/26 14:02:52;;;;;;;3.50;3.20;;;14.40;99.30;;;;;;5112378;28;20218;-68
2022/04/26 14:05:20;;;;;;;4.05;3.40;;;14.40;99.00;;;;;;5112976;28;20230;-68
2022/04/26 14:07:47;;;;;;;3.50;3.20;;;14.20;97.20;;;;;;5112720;28;20202;-69
2022/04/26 14:10:14;;;;;;;3.72;3.42;;;14.40;97.30;;;;;;5112763;28;20204;-68
2022/04/26 14:12:43;;;;;;;3.05;2.85;;;14.50;94.90;;;;;;5112259;28;20198;-69
2022/04/26 14:23:33;;;;;;;4.80;4.40;;;14.40;94.20;;;;;;5112118;28;20326;-68
2022/04/26 14:26:00;;;;;;;4.35;3.95;;;14.00;94.40;;;;;;5112879;28;20590;-68
2022/04/26 14:28:28;;;;;;;4.90;4.40;;;14.10;95.90;;;;;;5112394;28;20238;-69
2022/04/26 14:30:55;;;;;;;4.80;4.40;;;14.10;94.80;;;;;;5112066;28;20202;-69
2022/04/26 14:33:25;;;;;;;4.65;4.25;;;13.90;94.50;;;;;;5111850;28;20305;-69
2022/04/26 14:35:52;;;;;;;5.30;4.85;;;13.80;95.30;;;;;;5114095;28;20300;-68
2022/04/26 14:38:19;;;;;;;5.85;5.35;;;13.70;96.50;;;;;;5116776;28;20198;-68
2022/04/26 14:40:45;;;;;;;6.50;5.57;;;13.50;95.60;;;;;;5115848;28;20207;-69
2022/04/26 14:43:14;;;;;;;5.43;4.93;;;13.50;96.40;;;;;;5115610;28;20225;-69
2022/04/26 14:45:46;;;;;;;5.43;4.93;;;13.40;96.50;;;;;;5116224;28;20237;-69
2022/04/26 14:48:14;;;;;;;5.28;4.82;;;13.50;97.00;;;;;;5116546;28;20544;-68
2022/04/26 14:50:41;;;;;;;5.72;5.05;;;13.60;97.10;;;;;;5115929;28;20687;-68
2022/04/26 14:53:08;;;;;;;5.00;4.60;;;13.80;96.40;;;;;;5115810;28;20304;-68
2022/04/26 14:55:36;;;;;;;5.07;4.57;;;14.00;93.80;;;;;;5116166;28;20212;-68
2022/04/26 14:58:03;;;;;;;5.45;4.95;;;14.20;94.20;;;;;;5115970;28;20232;-69
2022/04/26 15:00:31;;;;;;;4.40;4.00;;;14.40;94.00;;;;;;5115597;28;20214;-69
2022/04/26 15:02:59;;;;;;;4.80;4.30;;;14.40;94.00;;;;;;5115634;28;20313;-68
2022/04/26 15:05:27;;;;;;;4.75;4.35;;;14.40;94.30;;;;;;5115974;28;20223;-69
2022/04/26 15:10:38;;;;;;;5.07;4.40;;;14.40;92.40;;;;;;5115798;28;20194;-68
2022/04/26 15:18:35;;;;;;;6.32;5.70;;;14.10;94.30;;;;;;5116865;28;20758;-69
2022/04/26 15:21:02;;;;;;;5.53;5.03;;;14.20;94.50;;;;;;5115376;28;20210;-68
2022/04/26 15:23:29;;;;;;;4.72;4.38;;;14.20;93.70;;;;;;5115019;28;20217;-68
2022/04/26 15:25:57;;;;;;;4.43;4.07;;;14.00;94.00;;;;;;5115708;28;20289;-66
2022/04/26 15:28:25;;;;;;;5.13;4.63;;;13.80;94.70;;;;;;5115527;27;20201;-67
2022/04/26 15:30:52;;;;;;;5.13;4.70;;;13.70;94.40;;;;;;5115091;28;20250;-67
2022/04/26 15:33:20;;;;;;;5.25;4.50;;;13.60;94.80;;;;;;5114789;28;20315;-67
2022/04/26 15:35:48;;;;;;;5.00;4.57;;;13.50;95.90;;;;;;5115174;28;20241;-66
2022/04/26 15:38:15;;;;;;;5.95;5.40;;;13.30;96.00;;;;;;5115172;28;20293;-67
2022/04/26 15:40:46;;;;;;;6.43;5.13;;;13.30;96.60;;;;;;5114945;28;20312;-67
2022/04/26 15:43:14;;;;;;;5.55;5.07;;;13.30;96.40;;;;;;5114725;28;20733;-67
2022/04/26 15:45:42;;;;;;;5.50;5.00;;;13.20;95.70;;;;;;5115097;28;20611;-67
2022/04/26 15:48:09;;;;;;;6.03;4.80;;;13.20;97.50;;;;;;5114223;28;20202;-67
2022/04/26 15:50:39;;;;;;;7.05;6.45;;;13.10;99.90;;;;;;5114893;28;20232;-66
2022/04/26 15:53:07;;;;;;;7.28;6.57;;;13.00;99.90;;;;;;5114779;28;20226;-68
2022/04/26 15:55:34;;;;;;;6.82;6.22;;;12.70;99.90;;;;;;5114688;28;20201;-68
2022/04/26 15:58:01;;;;;;;8.18;7.40;;;12.60;99.90;;;;;;5115093;28;20208;-67
2022/04/26 16:00:28;;;;;;;7.75;7.05;;;12.50;99.90;;;;;;5114602;28;20198;-67
2022/04/26 16:02:55;;;;;;;6.50;5.90;;;12.40;99.90;;;;;;5114163;28;20209;-68
2022/04/26 16:05:22;;;;;;;7.68;6.88;;;12.40;99.90;;;;;;5114358;28;20225;-69
2022/04/26 16:07:49;;;;;;;6.00;5.50;;;12.30;99.90;;;;;;5115121;28;20217;-69
2022/04/26 16:21:14;;;;;;;5.72;5.25;;;12.70;99.90;;;;;;5114097;28;20217;-68
2022/04/26 16:23:41;;;;;;;5.10;4.60;;;12.80;99.90;;;;;;5114025;28;20308;-69
2022/04/26 16:26:11;;;;;;;4.97;4.38;;;12.70;99.90;;;;;;5114797;28;20201;-68
2022/04/26 16:28:38;;;;;;;4.75;4.35;;;12.60;99.90;;;;;;5114382;28;20236;-69
2022/04/26 16:31:06;;;;;;;4.55;4.15;;;12.50;99.90;;;;;;5113799;28;20205;-69
2022/04/26 16:33:33;;;;;;;5.13;4.65;;;12.50;99.90;;;;;;5113793;28;20236;-68
2022/04/26 16:36:00;;;;;;;4.40;4.00;;;12.30;99.90;;;;;;5113968;28;20203;-67
2022/04/26 16:38:27;;;;;;;5.60;5.00;;;12.20;99.90;;;;;;5114001;28;20241;-67
2022/04/26 16:40:55;;;;;;;5.75;4.47;;;12.20;99.90;;;;;;5113482;28;20201;-68
2022/04/26 16:43:23;;;;;;;5.40;4.78;;;12.10;99.90;;;;;;5113606;28;20312;-69
2022/04/26 16:45:51;;;;;;;5.07;4.68;;;12.20;99.90;;;;;;5113794;28;20223;-68
2022/04/26 16:48:18;;;;;;;5.72;5.22;;;12.20;99.90;;;;;;5113796;28;20205;-70
2022/04/26 16:50:45;;;;;;;4.80;4.30;;;12.30;99.90;;;;;;5113110;28;20205;-68
2022/04/26 16:53:11;;;;;;;6.18;5.68;;;12.20;99.90;;;;;;5113564;28;20320;-69
2022/04/26 16:55:38;;;;;;;4.57;4.18;;;12.10;99.90;;;;;;5113758;28;20201;-69
2022/04/26 16:58:05;;;;;;;5.20;4.70;;;12.00;99.90;;;;;;5113613;28;20681;-69
2022/04/26 17:00:34;;;;;;;4.65;4.25;;;11.90;99.90;;;;;;5112883;28;20663;-70
2022/04/26 17:03:02;;;;;;;4.60;4.20;;;11.40;99.90;;;;;;5113074;28;20225;-69